• Join FlightAware (Why Join?)
  • Login
  • US Flag 
09:00PM EDT


 

Airport Tracker/Info


-or-


 

Live Flight TrackerFlight Track Log ✈ N75ZM ✈ 25-Jul-2013 ✈ KPDK - KHXD

Flight Track Log - Related Links

Times and Time Zones

All times are in EDT time to prevent confusion due to time zone crossing. See the N75ZM flight status page for this flight to view local times or setup timezone preferences in your user account.

Time Position Orientation Groundspeed Altitude Reporting Facility
EDT Latitude Longitude Course Direction KTS MPH feet Rate Location/Type
10:17AM 33.9000 -84.3000 15° North 124 143 2,400  Level Atlanta TRACON
10:18AM 33.9500 -84.2833 15° North 144 166 3,200 960 Climbing Atlanta TRACON
10:19AM 33.9667 -84.2500 59° Northeast 127 146 4,400 1,020 Climbing Atlanta TRACON
10:20AM 33.9667 -84.2167 90° East 133 153 5,300 900 Climbing Atlanta TRACON
10:21AM 33.9667 -84.1667 90° East 141 162 6,300 840 Climbing Atlanta TRACON
10:22AM 33.9667 -84.1167 90° East 137 158 7,000 420 Climbing Atlanta TRACON
10:23AM 33.9667 -84.0667 90° East 164 189 7,100  Climbing Atlanta TRACON
10:24AM 33.9667 -84.0000 90° East 174 200 7,100  Level Atlanta TRACON
10:25AM 33.9667 -83.9500 90° East 170 196 7,100  Level Atlanta TRACON
10:26AM 33.9667 -83.8833 90° East 172 198 7,100  Level Atlanta TRACON
10:27AM 33.9667 -83.8333 90° East 172 198 7,100  Level Atlanta TRACON
10:28AM 33.9667 -83.7667 90° East 173 199 7,100  Level Atlanta TRACON
10:29AM 33.9667 -83.7167 90° East 174 200 7,100  Level Atlanta TRACON
10:30AM 33.9667 -83.6667 90° East 174 200 7,100  Level Atlanta TRACON
10:31AM 33.9500 -83.6000 107° East 175 201 7,100  Level Atlanta TRACON
10:32AM 33.9500 -83.5333 90° East 177 204 7,100  Level Atlanta TRACON
10:33AM 33.9500 -83.4833 90° East 175 201 7,100  Level Atlanta TRACON
10:34AM 33.9500 -83.4167 90° East 177 204 7,100  Level Atlanta TRACON
10:35AM 33.9500 -83.3667 90° East 176 203 7,100  Level Atlanta TRACON
10:36AM 33.9500 -83.3167 90° East 177 204 7,100  Level Atlanta TRACON
10:37AM 33.9333 -83.2500 107° East 177 204 7,100  Level Atlanta TRACON
10:38AM 33.9167 -83.1833 107° East 178 205 7,100  Level Atlanta TRACON
10:39AM 33.9167 -83.1333 90° East 177 204 7,100  Level Atlanta TRACON
10:40AM 33.9000 -83.0833 112° Southeast 176 203 7,100  Level Atlanta TRACON
10:41AM 33.8833 -83.0167 107° East 177 204 7,100  Level Atlanta TRACON
10:43AM 33.8502 -82.9008 107° East  Level FlightAware Approximate
10:50AM 33.7648 -82.4739 103° East  Level FlightAware Approximate
10:51AM 33.7527 -82.4129 103° East  Level FlightAware Approximate
10:52AM 33.7405 -82.3518 103° East  Level FlightAware Approximate
10:53AM 33.7283 -82.2908 104° East  Level FlightAware Approximate
10:54AM 33.7160 -82.2297 104° East  Level FlightAware Approximate
10:55AM 33.7038 -82.1687 104° East  Level FlightAware Approximate
10:56AM 33.6723 -82.1220 140° Southeast  Level FlightAware Approximate
10:57AM 33.6323 -82.0817 140° Southeast  Level FlightAware Approximate
10:58AM 33.5923 -82.0414 140° Southeast  Level FlightAware Approximate
10:59AM 33.5523 -82.0011 140° Southeast  Level FlightAware Approximate
11:00AM 33.5123 -81.9609 140° Southeast  Level FlightAware Approximate
11:01AM 33.4723 -81.9207 140° Southeast  Level FlightAware Approximate
11:02AM 33.4322 -81.8806 140° Southeast  Level FlightAware Approximate
11:03AM 33.3922 -81.8405 140° Southeast  Level FlightAware Approximate
11:04AM 33.3521 -81.8004 140° Southeast  Level FlightAware Approximate
11:05AM 33.3120 -81.7604 140° Southeast  Level FlightAware Approximate
11:06AM 33.2719 -81.7204 140° Southeast  Level FlightAware Approximate
11:07AM 33.2318 -81.6804 140° Southeast  Level FlightAware Approximate
11:08AM 33.1917 -81.6405 140° Southeast  Level FlightAware Approximate
11:09AM 33.1516 -81.6006 140° Southeast  Level FlightAware Approximate
11:09AM 33.2106 -81.6586 140° Southeast 179 206 7,100  Level Jacksonville Center
11:10AM 33.1114 -81.5607 140° Southeast  Level FlightAware Approximate
11:10AM 33.1683 -81.6244 146° Southeast 192 221 7,100  Level Jacksonville Center
11:11AM 33.0713 -81.5209 140° Southeast  Level FlightAware Approximate
11:11AM 33.1306 -81.5878 141° Southeast 187 215 7,100  Level Jacksonville Center
11:12AM 33.0311 -81.4811 140° Southeast  Level FlightAware Approximate
11:12AM 33.0925 -81.5461 137° Southeast 187 215 7,100  Level Jacksonville Center
11:13AM 32.9912 -81.4409 140° Southeast  Level FlightAware Approximate
11:13AM 33.0544 -81.5097 141° Southeast 187 215 7,100  Level Jacksonville Center
11:14AM 32.9513 -81.4009 140° Southeast  Level FlightAware Approximate
11:14AM 33.0144 -81.4706 141° Southeast 187 215 7,100  Level Jacksonville Center
11:15AM 32.9744 -81.4317 141° Southeast 187 215 7,100  Level Jacksonville Center
11:16AM 32.9447 -81.4000 138° Southeast 187 215 7,100  Level Jacksonville Center
11:17AM 32.8961 -81.3561 143° Southeast 187 215 7,100  Level Jacksonville Center
11:18AM 32.8603 -81.3172 138° Southeast 187 215 7,100  Level Jacksonville Center
11:19AM 32.8200 -81.2783 141° Southeast 187 215 7,100  Level Jacksonville Center
11:20AM 32.7819 -81.2419 141° Southeast 187 215 7,100  Level Jacksonville Center
11:21AM 32.7419 -81.2033 141° Southeast 187 215 7,100  Level Jacksonville Center
11:22AM 32.7039 -81.1644 139° Southeast 187 215 7,100  Level Jacksonville Center
11:23AM 32.6614 -81.1258 143° Southeast 181 208 7,100  Level Jacksonville Center
11:24AM 32.6175 -81.1192 173° South 175 201 7,100 -180 Level Jacksonville Center
11:25AM 32.5631 -81.1103 172° South 180 207 6,800 -420 Descending Jacksonville Center
11:26AM 32.5150 -81.1039 174° South 185 213 6,300 -540 Descending Jacksonville Center
11:27AM 32.4586 -81.0953 173° South 185 213 5,800 -540 Descending Jacksonville Center
11:28AM 32.4164 -81.0739 157° South 180 207 5,300 -540 Descending Jacksonville Center
11:29AM 32.3722 -81.0503 156° South 174 200 4,800 -600 Descending Jacksonville Center
11:30AM 32.3239 -81.0267 158° South 174 200 4,200 -600 Descending Jacksonville Center
11:32AM 32.2983 -80.9418 106° East  Level Estimated
11:39AM 32.2244 -80.6975 90° East  Level Estimated
11:40AM 32.2244 -80.6975 90° East  Level Estimated
11:41AM 32.2244 -80.6975 90° East  Level Estimated
11:42AM 32.2244 -80.6975 90° East  Level Estimated
11:43AM 32.2244 -80.6975 90° East  Level Estimated
11:44AM 32.2244 -80.6975 90° East  Level Estimated